Time;durP1;ratioP1;P1;durP2;ratioP2;P2;SDS_P1;SDS_P2;PMS_P1;PMS_P2;Temp;Humidity;BMP_temperature;BMP_pressure;BME280_temperature;BME280_humidity;BME280_pressure;Samples;Min_cycle;Max_cycle;Signal;HPM_P1;HPM_P2
2022/09/22 00:00:55;;;;;;;4.88;3.97;;;;;;;11.20;92.13;102634.72;5033972;28;20471;-62
2022/09/22 00:03:20;;;;;;;6.50;4.78;;;;;;;11.18;92.21;102633.84;5049383;28;20048;-60
2022/09/22 00:05:45;;;;;;;9.38;4.18;;;;;;;11.15;92.16;102634.75;5048133;28;20024;-61
2022/09/22 00:08:11;;;;;;;5.95;4.25;;;;;;;11.18;92.37;102633.84;5049280;28;20021;-62
2022/09/22 00:10:36;;;;;;;6.18;4.22;;;;;;;11.16;92.23;102636.50;5047398;28;20024;-61
2022/09/22 00:13:02;;;;;;;8.73;4.53;;;;;;;11.16;92.48;102630.34;5028191;28;20164;-62
2022/09/22 00:15:27;;;;;;;8.32;4.38;;;;;;;11.16;92.71;102622.44;5028747;28;20076;-62
2022/09/22 00:17:52;;;;;;;8.90;4.70;;;;;;;11.11;92.96;102615.44;5029227;28;20034;-62
2022/09/22 00:20:18;;;;;;;8.75;4.88;;;;;;;11.10;92.65;102618.97;5029023;28;20525;-64
2022/09/22 00:22:43;;;;;;;9.07;4.80;;;;;;;11.11;92.68;102614.56;5028444;28;20084;-62
2022/09/22 00:25:09;;;;;;;7.88;4.05;;;;;;;11.10;92.95;102611.06;5028604;28;20029;-62
2022/09/22 00:27:34;;;;;;;9.60;4.30;;;;;;;11.10;92.65;102618.97;5027682;28;20029;-61
2022/09/22 00:30:00;;;;;;;6.10;4.28;;;;;;;11.09;92.77;102606.69;5029489;28;20033;-62
2022/09/22 00:32:26;;;;;;;6.53;4.63;;;;;;;11.10;92.78;102615.44;5029681;28;20049;-62
2022/09/22 00:34:51;;;;;;;12.25;4.47;;;;;;;11.11;92.78;102599.59;5029491;28;20057;-63
2022/09/22 00:37:17;;;;;;;8.18;4.40;;;;;;;11.10;92.94;102608.41;5029222;28;20021;-62
2022/09/22 00:39:43;;;;;;;8.40;3.90;;;;;;;11.10;92.69;102604.88;5029384;28;20060;-61
2022/09/22 00:42:11;;;;;;;12.52;4.95;;;;;;;11.10;92.68;102608.41;5034338;28;20056;-61
2022/09/22 00:44:41;;;;;;;9.60;4.55;;;;;;;11.10;92.88;102604.88;5048754;28;20021;-62
2022/09/22 00:47:19;;;;;;;13.30;4.47;;;;;;;11.11;92.70;102604.88;5048458;28;20029;-63
2022/09/22 00:49:54;;;;;;;5.53;3.75;;;;;;;11.11;92.88;102602.25;5031495;28;20069;-63
2022/09/22 00:52:30;;;;;;;5.60;3.75;;;;;;;11.14;92.80;102604.00;5039473;28;20057;-64
2022/09/22 00:54:57;;;;;;;4.20;3.22;;;;;;;11.14;92.81;102605.75;5027005;28;20108;-62
2022/09/22 00:57:25;;;;;;;5.45;3.95;;;;;;;11.12;92.74;102601.38;5025767;28;20029;-62
2022/09/22 00:59:51;;;;;;;9.60;4.45;;;;;;;11.11;93.04;102591.69;5027257;28;20033;-62
2022/09/22 01:02:17;;;;;;;4.78;3.72;;;;;;;11.11;92.94;102588.19;5026365;28;20024;-62
2022/09/22 01:04:43;;;;;;;5.43;3.53;;;;;;;11.10;92.76;102591.69;5027965;28;20025;-62
2022/09/22 01:07:09;;;;;;;5.35;3.42;;;;;;;11.08;93.13;102589.06;5025725;28;20037;-62
2022/09/22 01:09:34;;;;;;;6.47;4.22;;;;;;;11.10;93.00;102591.69;5026447;28;20100;-61
2022/09/22 01:12:01;;;;;;;7.13;3.92;;;;;;;11.08;93.12;102583.78;5032838;28;20064;-62
2022/09/22 01:14:59;;;;;;;5.47;3.85;;;;;;;11.08;92.96;102582.94;5045328;28;20076;-63
2022/09/22 01:18:04;;;;;;;5.53;3.42;;;;;;;11.06;92.98;102582.94;5046723;28;20032;-61
2022/09/22 01:20:51;;;;;;;4.30;3.28;;;;;;;11.03;92.58;102585.59;5045960;28;20060;-61
2022/09/22 01:23:57;;;;;;;6.28;3.72;;;;;;;11.01;92.79;102578.59;5028140;28;20029;-62
2022/09/22 01:26:39;;;;;;;4.15;3.75;;;;;;;10.99;92.80;102573.34;5026297;28;20107;-62
2022/09/22 01:29:32;;;;;;;6.53;4.10;;;;;;;10.99;92.92;102568.06;5026740;28;20026;-62
2022/09/22 01:31:57;;;;;;;9.73;4.10;;;;;;;10.99;93.16;102566.28;5030679;28;20037;-61
2022/09/22 01:34:30;;;;;;;7.40;3.85;;;;;;;10.99;93.16;102562.78;5046689;28;20029;-64
2022/09/22 01:36:58;;;;;;;9.55;4.00;;;;;;;10.98;93.04;102558.38;5045959;28;20038;-63
2022/09/22 01:39:33;;;;;;;4.63;3.53;;;;;;;10.95;93.13;102561.94;5048423;28;20029;-62
2022/09/22 01:42:43;;;;;;;7.00;3.78;;;;;;;10.95;93.15;102561.94;5042638;28;20028;-62
2022/09/22 01:45:12;;;;;;;6.05;3.80;;;;;;;10.95;93.28;102561.94;4998292;28;20049;-63
2022/09/22 01:47:52;;;;;;;6.95;3.97;;;;;;;10.94;93.41;102559.28;5030241;28;20025;-63
2022/09/22 01:50:19;;;;;;;;;;;;;;;10.95;93.28;102559.28;5032436;28;20052;-62
2022/09/22 01:52:46;;;;;;;4.07;3.47;;;;;;;10.93;92.95;102553.13;5030160;28;19920;-65
2022/09/22 01:55:20;;;;;;;6.10;3.70;;;;;;;10.92;92.89;102550.50;5030710;28;20353;-61
2022/09/22 01:57:55;;;;;;;4.95;3.70;;;;;;;10.91;92.91;102546.13;5029969;28;20040;-62
2022/09/22 02:00:22;;;;;;;6.53;4.10;;;;;;;10.90;93.21;102536.47;5031124;28;20137;-61
2022/09/22 02:03:07;;;;;;;7.93;4.25;;;;;;;10.90;93.53;102544.38;5031834;28;20036;-63
2022/09/22 02:05:40;;;;;;;7.45;4.00;;;;;;;10.87;93.02;102535.59;5030077;28;20628;-62
2022/09/22 02:08:29;;;;;;;6.90;3.83;;;;;;;10.90;93.13;102532.09;5030856;28;20025;-63
2022/09/22 02:10:57;;;;;;;8.27;3.97;;;;;;;10.88;93.43;102533.84;5030274;28;20030;-62
2022/09/22 02:13:23;;;;;;;6.37;4.40;;;;;;;10.89;93.31;102532.09;5034236;28;20650;-62
2022/09/22 02:16:01;;;;;;;5.40;4.85;;;;;;;10.86;93.22;102527.69;5050934;28;20120;-63
2022/09/22 02:18:30;;;;;;;6.00;4.05;;;;;;;10.84;93.28;102530.34;5048885;28;20033;-62
2022/09/22 02:20:55;;;;;;;6.10;4.28;;;;;;;10.81;93.38;102522.47;5049742;28;20029;-62
2022/09/22 02:23:21;;;;;;;7.38;4.90;;;;;;;10.78;93.56;102526.91;5043963;28;20025;-62
2022/09/22 02:25:46;;;;;;;8.57;4.68;;;;;;;10.77;93.74;102526.00;5031075;28;20104;-62
2022/09/22 02:28:15;;;;;;;9.02;4.68;;;;;;;10.77;93.26;102523.38;5027655;28;20025;-62
2022/09/22 02:30:42;;;;;;;8.38;5.10;;;;;;;10.71;93.54;102526.06;5030527;28;20033;-61
2022/09/22 02:33:08;;;;;;;7.65;4.80;;;;;;;10.70;93.67;102519.94;5028249;28;20446;-61
2022/09/22 02:35:37;;;;;;;7.63;4.75;;;;;;;10.68;93.64;102520.81;5030084;28;20021;-62
2022/09/22 02:38:13;;;;;;;8.98;5.53;;;;;;;10.66;93.51;102519.97;5047608;28;20032;-62
2022/09/22 02:41:00;;;;;;;8.18;4.68;;;;;;;10.66;93.78;102528.75;5025377;28;20037;-62
2022/09/22 02:43:28;;;;;;;6.15;5.00;;;;;;;10.64;93.82;102516.44;5009300;28;20103;-62
2022/09/22 02:46:00;;;;;;;8.68;5.32;;;;;;;10.64;93.91;102516.44;5011223;28;20057;-62
2022/09/22 02:48:35;;;;;;;8.27;4.88;;;;;;;10.65;93.56;102515.59;5027236;28;20091;-62
2022/09/22 02:51:00;;;;;;;8.23;4.68;;;;;;;10.62;93.57;102516.44;5029005;28;20087;-61
2022/09/22 02:53:25;;;;;;;9.20;5.35;;;;;;;10.60;93.94;102518.25;5032611;28;20028;-62
2022/09/22 02:55:51;;;;;;;8.73;5.18;;;;;;;10.58;93.73;102515.63;5050442;28;20468;-62
2022/09/22 02:58:16;;;;;;;6.57;4.65;;;;;;;10.55;93.76;102507.72;5047939;28;20392;-61
2022/09/22 03:00:43;;;;;;;9.10;5.28;;;;;;;10.55;93.35;102510.38;5049674;28;20033;-61
2022/09/22 03:03:10;;;;;;;11.40;5.70;;;;;;;10.48;93.82;102506.88;5048717;28;20196;-63
2022/09/22 03:05:36;;;;;;;11.32;6.07;;;;;;;10.47;93.64;102504.25;5030118;28;20035;-63
2022/09/22 03:08:01;;;;;;;11.35;5.88;;;;;;;10.45;93.49;102504.25;5029579;28;20105;-62
2022/09/22 03:10:27;;;;;;;11.82;6.15;;;;;;;10.43;93.71;102502.50;5029959;28;20041;-62
2022/09/22 03:12:52;;;;;;;11.45;5.97;;;;;;;10.38;93.72;102502.53;5028908;28;20030;-62
2022/09/22 03:15:17;;;;;;;8.88;6.13;;;;;;;10.36;94.01;102499.91;5030200;28;20057;-62
2022/09/22 03:17:43;;;;;;;9.90;6.05;;;;;;;10.38;94.04;102491.13;5029453;28;20041;-62
2022/09/22 03:20:10;;;;;;;8.90;6.20;;;;;;;10.35;93.80;102498.16;5039013;28;20040;-61
2022/09/22 03:22:36;;;;;;;11.98;6.30;;;;;;;10.36;93.98;102489.34;5049476;28;20052;-62
2022/09/22 03:25:02;;;;;;;7.43;5.65;;;;;;;10.35;93.83;102494.63;5048397;28;20446;-62
2022/09/22 03:27:27;;;;;;;11.40;6.05;;;;;;;10.32;94.08;102487.63;5047894;28;20028;-62
2022/09/22 03:29:54;;;;;;;7.18;5.88;;;;;;;10.32;93.89;102486.75;5049515;28;20025;-61
2022/09/22 03:32:20;;;;;;;13.95;6.35;;;;;;;10.33;94.12;102484.09;5048971;28;20104;-62
2022/09/22 03:34:45;;;;;;;13.85;7.00;;;;;;;10.30;93.92;102488.53;5048534;28;20021;-61
2022/09/22 03:37:10;;;;;;;14.15;7.13;;;;;;;10.29;94.03;102484.16;5033617;28;20625;-63
2022/09/22 03:39:36;;;;;;;12.95;7.20;;;;;;;10.26;94.21;102482.41;5028613;28;20037;-62
2022/09/22 03:42:01;;;;;;;13.38;7.15;;;;;;;10.31;93.86;102491.16;5027788;28;20039;-62
2022/09/22 03:44:26;;;;;;;14.77;7.50;;;;;;;10.32;94.04;102489.38;5028746;28;20064;-62
2022/09/22 03:46:52;;;;;;;15.13;7.50;;;;;;;10.27;93.92;102484.16;5029288;28;20029;-62
2022/09/22 03:49:17;;;;;;;11.07;7.22;;;;;;;10.24;94.01;102490.31;5028680;28;20042;-61
2022/09/22 03:51:43;;;;;;;13.60;7.78;;;;;;;10.24;94.36;102485.03;5027944;28;20638;-62
2022/09/22 03:54:08;;;;;;;9.27;7.03;;;;;;;10.21;94.21;102478.94;5019799;28;20033;-62
2022/09/22 03:56:33;;;;;;;13.48;7.18;;;;;;;10.21;94.36;102485.06;5028461;28;20025;-62
2022/09/22 03:58:59;;;;;;;14.35;7.63;;;;;;;10.16;93.97;102485.97;5030099;28;20115;-61
2022/09/22 04:01:24;;;;;;;12.95;8.32;;;;;;;10.17;94.05;102483.34;5032816;28;20025;-62
2022/09/22 04:03:50;;;;;;;13.68;7.85;;;;;;;10.21;94.02;102486.84;5043565;28;20055;-62
2022/09/22 04:06:15;;;;;;;13.05;7.47;;;;;;;10.19;94.08;102483.31;5042076;28;20071;-62
2022/09/22 04:08:40;;;;;;;12.73;8.23;;;;;;;10.16;94.21;102476.31;5041054;28;20023;-62
2022/09/22 04:11:07;;;;;;;13.10;8.43;;;;;;;10.16;94.30;102475.44;5032309;28;20025;-61
2022/09/22 04:13:34;;;;;;;13.70;8.93;;;;;;;10.10;94.53;102471.97;5045396;28;20049;-64
2022/09/22 04:15:59;;;;;;;12.85;8.80;;;;;;;10.07;94.31;102469.34;5033757;28;20025;-61
2022/09/22 04:18:25;;;;;;;17.10;9.95;;;;;;;10.07;94.20;102469.34;5034985;28;20040;-62
2022/09/22 04:20:55;;;;;;;15.65;9.35;;;;;;;10.10;94.26;102466.69;5024116;28;20061;-63
2022/09/22 04:23:20;;;;;;;14.00;9.75;;;;;;;10.09;94.57;102470.19;5027069;28;20413;-62
2022/09/22 04:25:46;;;;;;;15.43;10.40;;;;;;;10.10;93.98;102471.97;5047089;28;20032;-61
2022/09/22 04:28:11;;;;;;;16.65;9.70;;;;;;;10.09;94.23;102467.56;5046314;28;20021;-61
2022/09/22 04:30:36;;;;;;;16.38;10.63;;;;;;;10.09;94.20;102474.59;5026853;28;20068;-60
2022/09/22 04:33:02;;;;;;;15.50;9.02;;;;;;;10.09;94.10;102464.94;5027525;28;20022;-64
2022/09/22 04:35:27;;;;;;;13.82;9.40;;;;;;;10.10;94.19;102463.19;5027455;28;20025;-61
2022/09/22 04:37:54;;;;;;;16.15;10.77;;;;;;;10.08;94.81;102467.56;5027377;28;20028;-63
2022/09/22 04:40:20;;;;;;;20.70;12.80;;;;;;;10.08;94.52;102473.72;5027391;28;20026;-64
2022/09/22 04:42:45;;;;;;;26.63;12.90;;;;;;;10.06;94.50;102470.22;5026761;28;20026;-61
2022/09/22 04:45:11;;;;;;;20.80;12.10;;;;;;;10.06;94.55;102474.63;5028087;28;20034;-64
2022/09/22 04:47:37;;;;;;;21.02;12.38;;;;;;;10.05;94.46;102467.63;5038124;28;20037;-62
2022/09/22 04:50:03;;;;;;;18.08;11.63;;;;;;;10.07;94.66;102471.97;5047707;28;20486;-62
2022/09/22 04:52:28;;;;;;;17.13;11.73;;;;;;;10.07;94.37;102464.09;5046797;28;20055;-63
2022/09/22 04:54:54;;;;;;;25.48;13.60;;;;;;;10.07;94.73;102469.34;5047456;28;20043;-62
2022/09/22 04:57:19;;;;;;;22.17;13.10;;;;;;;10.05;94.64;102468.47;5025092;28;20384;-62
2022/09/22 04:59:44;;;;;;;20.25;13.05;;;;;;;10.02;94.64;102463.22;5045478;28;20033;-60
2022/09/22 05:02:10;;;;;;;20.92;12.75;;;;;;;10.01;94.64;102461.47;5028746;28;20047;-62
2022/09/22 05:04:35;;;;;;;20.58;13.82;;;;;;;10.01;94.62;102461.47;5026498;28;20018;-62
2022/09/22 05:07:00;;;;;;;21.73;13.55;;;;;;;9.99;94.62;102458.84;5026530;28;20053;-61
2022/09/22 05:09:27;;;;;;;20.17;12.75;;;;;;;9.99;94.88;102463.22;5026192;28;20063;-62
2022/09/22 05:11:53;;;;;;;18.50;12.77;;;;;;;9.98;94.70;102465.00;5006949;28;20036;-62
2022/09/22 05:14:19;;;;;;;21.42;14.10;;;;;;;9.97;94.64;102462.38;5007192;28;20408;-64
2022/09/22 05:16:44;;;;;;;21.70;12.73;;;;;;;9.97;94.78;102465.88;5008000;28;20021;-61
2022/09/22 05:19:09;;;;;;;17.20;13.02;;;;;;;9.96;94.69;102464.13;5017959;28;20029;-61
2022/09/22 05:21:36;;;;;;;24.08;14.27;;;;;;;9.95;94.75;102466.78;5027413;28;20120;-62
2022/09/22 05:24:02;;;;;;;22.38;13.43;;;;;;;9.94;94.90;102462.41;5027136;28;20028;-62
2022/09/22 05:26:27;;;;;;;24.15;14.75;;;;;;;9.94;94.57;102470.28;5026922;28;20025;-62
2022/09/22 05:28:52;;;;;;;22.13;14.32;;;;;;;9.94;94.93;102467.66;5027196;28;20068;-62
2022/09/22 05:31:18;;;;;;;25.30;15.60;;;;;;;9.95;94.86;102467.66;5028005;28;20044;-64
2022/09/22 05:33:43;;;;;;;22.02;15.65;;;;;;;9.99;94.77;102465.88;5030931;28;20531;-62
2022/09/22 05:36:09;;;;;;;28.17;17.42;;;;;;;9.99;95.31;102463.22;5044987;28;20384;-62
2022/09/22 05:38:34;;;;;;;27.50;17.35;;;;;;;9.99;95.33;102466.75;5025133;28;20025;-64
2022/09/22 05:41:00;;;;;;;29.65;17.27;;;;;;;10.01;95.44;102471.13;5026290;28;20018;-62
2022/09/22 05:43:25;;;;;;;27.05;16.45;;;;;;;10.04;95.33;102474.63;5030071;28;20095;-63
2022/09/22 05:45:51;;;;;;;29.73;17.73;;;;;;;10.04;95.57;102472.00;5031689;28;20531;-63
2022/09/22 05:48:16;;;;;;;30.48;18.50;;;;;;;10.07;95.41;102471.97;5026040;28;20032;-64
2022/09/22 05:50:42;;;;;;;28.05;17.77;;;;;;;10.10;95.72;102471.97;5025749;28;20026;-63
2022/09/22 05:53:09;;;;;;;28.77;18.13;;;;;;;10.13;95.40;102468.44;5024924;28;20623;-61
2022/09/22 05:55:34;;;;;;;31.88;19.60;;;;;;;10.15;95.86;102466.69;5025758;28;20064;-61
2022/09/22 05:58:01;;;;;;;29.98;19.00;;;;;;;10.19;95.80;102468.41;5024050;28;20068;-62
2022/09/22 06:00:27;;;;;;;36.08;18.77;;;;;;;10.24;95.76;102474.50;5025049;28;20381;-60
2022/09/22 06:02:52;;;;;;;30.15;18.17;;;;;;;10.29;95.64;102471.00;5019056;28;20100;-60
2022/09/22 06:05:17;;;;;;;26.77;17.40;;;;;;;10.33;96.18;102473.56;5025955;28;20025;-62
2022/09/22 06:07:43;;;;;;;31.50;19.60;;;;;;;10.36;96.04;102473.53;5025487;28;20034;-62
2022/09/22 06:10:11;;;;;;;31.13;19.02;;;;;;;10.40;96.24;102460.34;5025521;28;20029;-62
2022/09/22 06:12:37;;;;;;;31.83;18.07;;;;;;;10.46;96.08;102469.13;5024557;28;20034;-60
2022/09/22 06:15:04;;;;;;;29.08;17.33;;;;;;;10.53;96.14;102469.94;5024886;28;20284;-61
2022/09/22 06:17:29;;;;;;;32.10;18.55;;;;;;;10.60;96.01;102466.38;5026818;28;20030;-62
2022/09/22 06:19:54;;;;;;;34.03;19.00;;;;;;;10.67;96.16;102461.94;5043464;28;20441;-62
2022/09/22 06:22:20;;;;;;;27.73;19.13;;;;;;;10.74;96.17;102468.03;5045664;28;20028;-62
2022/09/22 06:24:45;;;;;;;25.20;17.38;;;;;;;10.80;95.99;102467.09;5045838;28;20025;-61
2022/09/22 06:27:10;;;;;;;29.98;18.50;;;;;;;10.83;96.61;102459.16;5047607;28;20028;-64
2022/09/22 06:29:36;;;;;;;27.35;18.85;;;;;;;10.90;96.43;102467.91;5049742;28;20025;-62
2022/09/22 06:32:02;;;;;;;29.00;19.08;;;;;;;10.96;96.24;102454.66;5048461;28;20029;-62
2022/09/22 06:34:27;;;;;;;25.02;18.83;;;;;;;10.99;96.52;102463.41;5043250;28;20048;-62
2022/09/22 06:36:56;;;;;;;29.77;20.70;;;;;;;11.07;96.45;102465.97;5028930;28;20048;-61
2022/09/22 06:39:22;;;;;;;28.20;19.13;;;;;;;11.16;96.33;102466.75;5027873;28;20032;-61
2022/09/22 06:41:47;;;;;;;28.70;19.05;;;;;;;11.30;96.06;102467.53;5028951;28;20021;-61
2022/09/22 06:44:14;;;;;;;36.03;21.73;;;;;;;11.45;95.91;102465.59;5011273;28;20084;-62
2022/09/22 06:46:40;;;;;;;32.00;21.33;;;;;;;11.51;95.84;102468.16;5009252;28;20116;-63
2022/09/22 06:49:06;;;;;;;32.03;21.58;;;;;;;11.59;96.01;102458.38;5009349;28;20025;-65
2022/09/22 06:51:33;;;;;;;28.60;21.85;;;;;;;11.63;96.27;102457.44;5023301;28;20032;-64
2022/09/22 06:54:02;;;;;;;35.08;22.38;;;;;;;11.68;95.65;102462.66;5028175;28;20057;-62
2022/09/22 06:56:28;;;;;;;32.63;22.33;;;;;;;11.74;96.16;102451.19;5026099;28;20018;-61
2022/09/22 06:58:57;;;;;;;34.67;21.95;;;;;;;11.80;96.04;102461.63;5046256;28;20044;-62
2022/09/22 07:01:22;;;;;;;34.95;22.52;;;;;;;11.91;96.01;102457.97;5047130;28;20021;-62
2022/09/22 07:03:49;;;;;;;33.60;22.65;;;;;;;12.04;95.55;102450.78;5048486;28;20029;-62
2022/09/22 07:06:16;;;;;;;36.28;24.27;;;;;;;12.19;95.52;102453.22;5048219;28;20435;-62
2022/09/22 07:08:42;;;;;;;30.45;20.80;;;;;;;12.30;95.35;102454.81;5047408;28;20112;-63
2022/09/22 07:11:09;;;;;;;33.38;23.35;;;;;;;12.34;95.19;102454.75;5047555;28;20755;-61
2022/09/22 07:13:38;;;;;;;36.80;22.25;;;;;;;12.53;94.93;102445.66;5046731;28;20136;-63
2022/09/22 07:16:17;;;;;;;29.50;22.52;;;;;;;12.58;94.62;102452.59;5029077;28;20076;-61
2022/09/22 07:18:44;;;;;;;35.55;23.10;;;;;;;12.72;94.22;102448.88;5027582;28;20112;-61
2022/09/22 07:21:12;;;;;;;34.92;24.17;;;;;;;12.85;94.03;102444.22;5028403;28;20494;-64
2022/09/22 07:23:39;;;;;;;31.25;23.60;;;;;;;13.02;93.19;102438.63;5028718;28;20023;-62
2022/09/22 07:26:06;;;;;;;34.35;22.73;;;;;;;13.12;91.63;102442.84;5027294;28;20087;-61
2022/09/22 07:28:33;;;;;;;27.92;20.00;;;;;;;13.26;90.69;102436.41;5027234;28;20420;-61
2022/09/22 07:31:07;;;;;;;30.00;21.33;;;;;;;13.37;89.96;102439.72;5027246;28;20478;-61
2022/09/22 07:33:33;;;;;;;30.33;20.63;;;;;;;13.46;89.83;102438.66;5026904;28;20025;-61
2022/09/22 07:36:04;;;;;;;27.92;18.42;;;;;;;13.48;89.15;102438.63;5027389;28;20472;-61
2022/09/22 07:38:32;;;;;;;31.42;20.02;;;;;;;13.68;88.23;102437.38;5026877;28;20029;-61
2022/09/22 07:40:59;;;;;;;21.77;17.05;;;;;;;13.75;87.64;102433.69;5027624;28;20036;-62
2022/09/22 07:43:25;;;;;;;22.35;16.15;;;;;;;13.80;86.94;102437.13;5026428;28;20386;-62
2022/09/22 07:45:54;;;;;;;20.48;15.57;;;;;;;13.87;86.04;102433.41;5026622;28;20017;-60
2022/09/22 07:51:08;;;;;;;22.50;14.45;;;;;;;14.05;84.15;102436.56;5027081;28;20519;-60
2022/09/22 07:53:34;;;;;;;19.83;14.00;;;;;;;14.09;81.43;102442.66;5027717;28;20108;-61
2022/09/22 07:56:11;;;;;;;19.63;12.65;;;;;;;14.15;80.46;102438.09;5036657;28;20533;-61
2022/09/22 07:58:40;;;;;;;16.08;11.07;;;;;;;14.28;80.07;102437.81;5026473;28;20034;-61
2022/09/22 08:01:07;;;;;;;23.20;12.70;;;;;;;14.34;79.60;102439.44;5027991;28;20492;-61
2022/09/22 08:03:35;;;;;;;15.15;10.93;;;;;;;14.48;79.31;102433.81;5026158;28;20057;-61
2022/09/22 08:06:08;;;;;;;18.27;11.80;;;;;;;14.47;78.11;102426.72;5026602;28;20464;-61
2022/09/22 08:08:34;;;;;;;19.02;12.70;;;;;;;14.59;77.49;102431.72;5026386;28;20036;-60
2022/09/22 08:11:05;;;;;;;16.25;10.70;;;;;;;14.70;77.30;102430.59;5024395;28;20037;-61
2022/09/22 08:13:30;;;;;;;16.05;10.38;;;;;;;14.98;77.25;102438.72;5026185;28;20076;-62
2022/09/22 08:15:55;;;;;;;15.75;11.25;;;;;;;15.02;75.50;102421.78;5026892;28;20480;-64
2022/09/22 08:18:21;;;;;;;15.93;10.90;;;;;;;15.12;74.95;102424.22;5024028;28;20090;-62
2022/09/22 08:20:46;;;;;;;14.40;9.95;;;;;;;15.25;74.92;102419.41;5026739;28;20030;-62
2022/09/22 08:23:12;;;;;;;16.35;10.98;;;;;;;15.29;74.74;102421.06;5025845;28;20040;-62
2022/09/22 08:25:39;;;;;;;11.40;8.13;;;;;;;15.48;74.86;102426.72;5027303;28;20029;-62
2022/09/22 08:28:04;;;;;;;13.80;8.95;;;;;;;15.38;73.97;102426.13;5025436;28;20021;-62
2022/09/22 08:30:29;;;;;;;17.02;8.73;;;;;;;15.62;73.67;102417.47;5025276;28;20036;-60
2022/09/22 08:32:55;;;;;;;16.23;8.45;;;;;;;15.74;73.39;102416.25;5005483;28;20057;-62
2022/09/22 08:35:20;;;;;;;12.38;8.88;;;;;;;15.74;72.47;102411.78;5025092;28;20056;-62
2022/09/22 08:37:49;;;;;;;14.82;7.32;;;;;;;15.89;73.83;102413.09;5025599;28;20017;-62
2022/09/22 08:40:23;;;;;;;16.70;9.57;;;;;;;15.95;71.52;102416.50;5024531;28;20045;-62
2022/09/22 08:42:51;;;;;;;12.18;8.98;;;;;;;15.96;72.10;102420.88;5026334;28;20041;-63
2022/09/22 08:45:35;;;;;;;17.33;9.43;;;;;;;16.13;72.25;102413.25;5025468;28;20036;-62
2022/09/22 08:53:58;;;;;;;11.23;8.00;;;;;;;16.45;71.42;102413.13;5022450;28;20036;-62
2022/09/22 08:56:32;;;;;;;19.30;9.55;;;;;;;16.67;70.24;102410.59;5023962;28;20487;-61
2022/09/22 08:59:17;;;;;;;14.70;8.10;;;;;;;16.81;70.68;102409.25;5006871;28;20022;-62
2022/09/22 09:01:59;;;;;;;17.63;9.13;;;;;;;16.96;69.62;102406.94;5018124;28;20030;-62
2022/09/22 09:04:41;;;;;;;14.73;9.00;;;;;;;16.86;70.65;102412.59;5024391;28;20064;-63
2022/09/22 09:07:09;;;;;;;10.10;8.38;;;;;;;16.96;70.36;102406.94;5025556;28;20120;-63
2022/09/22 09:10:02;;;;;;;10.40;6.88;;;;;;;17.05;69.37;102411.94;5026040;28;20045;-61
2022/09/22 09:12:50;;;;;;;12.10;8.85;;;;;;;17.24;68.31;102405.97;5017235;28;20111;-61
2022/09/22 09:15:32;;;;;;;11.87;8.97;;;;;;;17.15;68.46;102408.06;5025325;28;20124;-63
2022/09/22 09:18:01;;;;;;;13.73;8.95;;;;;;;17.09;68.07;102408.28;5036718;28;20487;-63
2022/09/22 09:20:30;;;;;;;13.80;9.52;;;;;;;17.35;67.53;102414.44;5036071;28;20107;-63
2022/09/22 09:22:57;;;;;;;10.52;7.25;;;;;;;17.49;66.49;102413.03;5009209;28;20569;-63
2022/09/22 09:25:30;;;;;;;12.70;8.00;;;;;;;17.48;65.11;102409.50;5024362;28;20029;-64
2022/09/22 09:27:59;;;;;;;10.00;6.82;;;;;;;17.52;66.10;102415.59;5024968;28;20094;-63
2022/09/22 09:30:25;;;;;;;11.88;7.63;;;;;;;17.72;65.74;102411.25;5024467;28;20492;-61
2022/09/22 09:33:03;;;;;;;12.27;7.38;;;;;;;17.59;65.12;102416.22;5028264;28;20034;-64
2022/09/22 09:35:44;;;;;;;7.53;6.73;;;;;;;17.87;65.42;102416.00;5044441;28;20501;-63
2022/09/22 09:38:26;;;;;;;12.52;7.53;;;;;;;17.75;64.49;102416.47;5037780;28;20029;-63
2022/09/22 09:40:56;;;;;;;16.55;7.50;;;;;;;17.73;64.48;102413.03;5024444;28;20070;-63
2022/09/22 09:43:22;;;;;;;9.07;6.63;;;;;;;17.87;64.15;102418.66;5042073;28;20037;-62
2022/09/22 09:46:00;;;;;;;14.65;6.60;;;;;;;17.75;63.33;102413.81;5047131;28;20029;-62
2022/09/22 09:48:57;;;;;;;8.63;6.05;;;;;;;17.73;65.18;102419.19;5045870;28;20028;-62
2022/09/22 09:51:22;;;;;;;9.25;6.85;;;;;;;17.87;63.89;102416.00;5025108;28;20053;-62
2022/09/22 09:53:48;;;;;;;16.17;7.35;;;;;;;17.98;63.87;102412.91;5025460;28;20436;-61
2022/09/22 09:56:27;;;;;;;16.08;6.78;;;;;;;18.21;63.74;102418.28;5026100;28;20032;-61
2022/09/22 10:01:40;;;;;;;8.60;6.95;;;;;;;18.41;63.94;102404.97;5048074;28;20228;-63
2022/09/22 10:04:16;;;;;;;11.70;6.65;;;;;;;18.56;63.92;102400.78;5048934;28;20476;-62
2022/09/22 10:06:42;;;;;;;10.38;7.07;;;;;;;18.48;64.23;102399.38;5034637;28;20076;-61
2022/09/22 10:09:08;;;;;;;8.73;6.40;;;;;;;18.33;63.70;102395.53;5030414;28;20072;-63
2022/09/22 10:11:33;;;;;;;10.27;6.68;;;;;;;18.63;62.92;102393.34;5027519;28;20127;-63
2022/09/22 10:13:59;;;;;;;7.93;5.75;;;;;;;18.61;61.95;102394.34;5029775;28;20128;-61
2022/09/22 10:16:34;;;;;;;14.90;6.47;;;;;;;18.67;62.54;102400.28;5028363;28;20024;-64
2022/09/22 10:19:26;;;;;;;11.93;7.25;;;;;;;18.74;62.99;102397.34;5028555;28;20064;-63
2022/09/22 10:21:51;;;;;;;9.75;5.32;;;;;;;18.89;62.57;102391.34;5028851;28;20380;-62
2022/09/22 10:24:33;;;;;;;10.18;5.97;;;;;;;19.11;61.92;102385.03;5029978;28;20508;-62
2022/09/22 10:26:58;;;;;;;9.57;6.20;;;;;;;19.20;62.87;102383.75;5031612;28;20025;-62
2022/09/22 10:29:24;;;;;;;9.77;6.10;;;;;;;19.28;63.38;102386.97;5029998;28;20383;-64
2022/09/22 10:32:11;;;;;;;11.25;4.78;;;;;;;19.38;61.62;102374.03;5030068;28;20080;-63
2022/09/22 10:34:38;;;;;;;8.10;5.60;;;;;;;19.73;60.60;102373.28;5026513;28;20037;-62
2022/09/22 10:37:10;;;;;;;7.70;5.45;;;;;;;19.18;59.36;102373.13;5029324;28;20245;-62
2022/09/22 10:39:42;;;;;;;8.98;5.30;;;;;;;19.53;58.01;102371.56;5026782;28;20033;-62
2022/09/22 10:42:19;;;;;;;7.25;4.07;;;;;;;19.68;57.91;102367.28;5026852;28;20082;-63
2022/09/22 10:44:45;;;;;;;7.97;5.38;;;;;;;19.51;59.22;102360.94;5029108;28;20033;-62
2022/09/22 10:47:24;;;;;;;7.70;4.82;;;;;;;19.80;58.97;102347.97;5029307;28;20026;-62
2022/09/22 10:50:08;;;;;;;9.15;4.47;;;;;;;19.97;58.10;102353.41;5029055;28;20503;-63
2022/09/22 10:52:44;;;;;;;12.82;5.07;;;;;;;19.97;57.88;102356.09;5027966;28;20025;-62
2022/09/22 10:55:12;;;;;;;9.63;4.90;;;;;;;20.10;57.66;102348.38;5027402;28;20080;-63
2022/09/22 10:57:59;;;;;;;8.13;4.80;;;;;;;20.29;55.77;102353.63;5028914;28;20963;-63
2022/09/22 11:00:26;;;;;;;8.13;5.15;;;;;;;19.99;58.62;102354.22;5024092;28;20104;-63
2022/09/22 11:03:25;;;;;;;7.53;4.50;;;;;;;20.24;55.50;102358.34;5027812;28;20109;-62
2022/09/22 11:12:23;;;;;;;6.75;5.35;;;;;;;20.69;56.14;102338.16;5026284;28;20060;-62
2022/09/22 11:15:01;;;;;;;8.30;5.13;;;;;;;20.84;55.68;102332.94;5023149;28;20076;-64
2022/09/22 11:17:33;;;;;;;7.63;4.90;;;;;;;20.95;55.90;102330.56;5028519;28;20561;-61
2022/09/22 11:20:07;;;;;;;8.35;5.53;;;;;;;20.93;55.58;102337.81;5028858;28;20030;-61
2022/09/22 11:22:43;;;;;;;6.28;5.30;;;;;;;21.06;55.73;102334.44;5029858;28;20027;-63
2022/09/22 11:25:39;;;;;;;9.45;5.20;;;;;;;21.19;52.36;102334.66;5029711;28;20301;-62
2022/09/22 11:28:19;;;;;;;7.43;4.32;;;;;;;21.56;50.38;102326.34;5027126;28;20116;-61
2022/09/22 11:30:48;;;;;;;7.18;4.10;;;;;;;21.83;51.17;102326.56;5028159;28;20570;-62
2022/09/22 11:33:33;;;;;;;;;;;;;;;21.78;51.53;102320.63;5027692;28;20018;-62
2022/09/22 11:36:03;;;;;;;8.93;3.53;;;;;;;21.73;52.72;102320.00;4997270;28;19920;-62
2022/09/22 11:38:50;;;;;;;7.38;3.42;;;;;;;21.76;51.02;102308.28;5030930;28;20112;-63
2022/09/22 11:41:24;;;;;;;9.40;3.15;;;;;;;21.37;52.19;102316.66;5028563;28;20060;-61
2022/09/22 11:44:05;;;;;;;13.23;3.38;;;;;;;21.80;48.64;102309.81;5029163;28;20108;-62
2022/09/22 11:46:39;;;;;;;6.80;2.80;;;;;;;22.05;48.29;102300.28;5028197;28;20515;-62
2022/09/22 11:49:13;;;;;;;5.88;2.42;;;;;;;21.98;48.13;102298.94;5028732;28;20025;-62